createdAt,value
2018-12-05T00:00:51.375Z,100.00
2018-12-05T00:17:33.611Z,99.63
2018-12-05T00:23:46.876Z,99.81
2018-12-05T00:26:17.357Z,99.52
2018-12-05T00:28:53.432Z,99.81
2018-12-05T00:31:23.150Z,99.76
2018-12-05T00:33:54.348Z,99.48
2018-12-05T00:36:22.553Z,99.34
2018-12-05T00:38:50.656Z,99.13
2018-12-05T00:41:18.802Z,98.72
2018-12-05T00:43:46.889Z,98.87
2018-12-05T00:46:15.060Z,99.27
2018-12-05T00:48:43.145Z,98.97
2018-12-05T00:51:11.326Z,98.80
2018-12-05T00:53:39.615Z,98.74
2018-12-05T00:56:07.864Z,98.89
2018-12-05T00:58:36.069Z,98.88
2018-12-05T01:01:04.344Z,98.79
2018-12-05T01:03:32.538Z,98.81
2018-12-05T01:06:00.812Z,98.84
2018-12-05T01:08:29.066Z,98.16
2018-12-05T01:10:57.234Z,98.40
2018-12-05T01:13:25.382Z,98.41
2018-12-05T01:15:53.457Z,98.63
2018-12-05T01:18:21.638Z,98.09
2018-12-05T01:20:49.729Z,98.01
2018-12-05T01:23:17.823Z,98.25
2018-12-05T01:25:45.972Z,98.20
2018-12-05T01:28:14.063Z,98.45
2018-12-05T01:30:42.125Z,98.27
2018-12-05T01:33:10.218Z,97.99
2018-12-05T01:35:38.373Z,98.41
2018-12-05T01:38:06.451Z,98.50
2018-12-05T01:40:34.610Z,98.98
2018-12-05T01:43:02.694Z,99.16
2018-12-05T01:45:30.803Z,99.63
2018-12-05T01:47:58.902Z,99.05
2018-12-05T01:50:27.141Z,98.56
2018-12-05T01:52:55.250Z,98.03
2018-12-05T01:55:23.337Z,98.11
2018-12-05T01:57:51.523Z,97.96
2018-12-05T02:00:19.802Z,98.30
2018-12-05T02:05:22.537Z,98.40
2018-12-05T02:07:51.289Z,98.72
2018-12-05T02:10:19.451Z,99.16
2018-12-05T02:12:47.613Z,98.83
2018-12-05T02:15:15.827Z,99.00
2018-12-05T02:17:44.044Z,98.72
2018-12-05T02:20:12.339Z,98.97
2018-12-05T02:22:40.513Z,98.56
2018-12-05T02:25:08.794Z,98.93
2018-12-05T02:27:36.964Z,98.69
2018-12-05T02:30:05.818Z,98.64
2018-12-05T02:32:34.090Z,98.81
2018-12-05T02:35:02.302Z,98.90
2018-12-05T02:37:30.482Z,98.81
2018-12-05T02:39:58.638Z,98.90
2018-12-05T02:42:26.753Z,98.66
2018-12-05T02:44:54.850Z,98.43
2018-12-05T02:47:22.991Z,98.31
2018-12-05T02:52:23.845Z,98.54
2018-12-05T02:54:51.932Z,98.50
2018-12-05T02:57:20.095Z,98.54
2018-12-05T02:59:56.886Z,99.04
2018-12-05T03:02:25.030Z,99.70
2018-12-05T03:04:53.498Z,100.00
2018-12-05T03:07:21.663Z,99.53
2018-12-05T03:09:49.870Z,99.88
2018-12-05T03:12:17.947Z,99.63
2018-12-05T03:14:46.114Z,100.00
2018-12-05T03:17:14.175Z,99.92
2018-12-05T03:19:42.310Z,99.92
2018-12-05T03:22:10.467Z,99.14
2018-12-05T03:24:38.630Z,99.04
2018-12-05T03:27:06.739Z,99.21
2018-12-05T03:29:34.899Z,99.93
2018-12-05T03:32:02.981Z,99.75
2018-12-05T03:34:31.147Z,99.92
2018-12-05T03:36:59.803Z,99.03
2018-12-05T03:39:27.907Z,98.94
2018-12-05T03:41:55.989Z,98.91
2018-12-05T03:44:24.228Z,99.34
2018-12-05T03:46:52.378Z,99.33
2018-12-05T03:49:20.490Z,98.97
2018-12-05T03:51:48.566Z,99.04
2018-12-05T03:54:16.955Z,98.75
2018-12-05T03:56:45.033Z,98.72
2018-12-05T03:59:13.208Z,97.93
2018-12-05T04:01:44.292Z,98.35
2018-12-05T04:04:12.401Z,98.17
2018-12-05T04:06:40.574Z,98.36
2018-12-05T04:09:08.833Z,97.96
2018-12-05T04:11:40.002Z,98.89
2018-12-05T04:14:08.074Z,97.89
2018-12-05T04:16:37.300Z,98.04
2018-12-05T04:19:05.519Z,98.31
2018-12-05T04:21:33.692Z,98.43
2018-12-05T04:24:01.866Z,98.29
2018-12-05T04:26:29.963Z,98.15
2018-12-05T04:28:58.190Z,98.37
2018-12-05T04:31:26.273Z,98.52
2018-12-05T04:33:54.346Z,98.27
2018-12-05T04:36:22.503Z,98.39
2018-12-05T04:39:08.330Z,98.51
2018-12-05T04:41:36.508Z,98.35
2018-12-05T04:44:05.360Z,98.29
2018-12-05T04:46:33.614Z,98.71
2018-12-05T04:49:01.776Z,98.71
2018-12-05T04:51:29.874Z,98.91
2018-12-05T04:53:58.091Z,99.51
2018-12-05T04:56:26.228Z,99.06
2018-12-05T04:58:54.430Z,99.14
2018-12-05T05:01:22.574Z,99.20
2018-12-05T05:03:50.758Z,99.23
2018-12-05T05:06:19.071Z,98.90
2018-12-05T05:08:47.886Z,99.32
2018-12-05T05:11:16.037Z,99.21
2018-12-05T05:13:44.303Z,99.61
2018-12-05T05:16:12.655Z,99.49
2018-12-05T05:18:40.756Z,99.36
2018-12-05T05:21:08.918Z,99.73
2018-12-05T05:23:37.098Z,99.51
2018-12-05T05:26:05.276Z,99.38
2018-12-05T05:28:33.445Z,99.62
2018-12-05T05:31:01.543Z,99.27
2018-12-05T05:33:29.651Z,98.86
2018-12-05T05:35:57.819Z,98.72
2018-12-05T05:38:26.011Z,98.89
2018-12-05T05:41:00.867Z,98.71
2018-12-05T05:43:28.966Z,98.31
2018-12-05T05:45:57.150Z,98.52
2018-12-05T05:48:25.238Z,98.57
2018-12-05T05:50:53.342Z,98.96
2018-12-05T05:53:21.620Z,98.41
2018-12-05T05:55:49.810Z,97.93
2018-12-05T05:58:18.082Z,98.21
2018-12-05T06:00:46.292Z,98.43
2018-12-05T06:03:14.488Z,98.36
2018-12-05T06:05:42.714Z,98.39
2018-12-05T06:08:10.918Z,98.07
2018-12-05T06:10:39.119Z,98.37
2018-12-05T06:13:07.397Z,98.02
2018-12-05T06:15:35.679Z,97.96
2018-12-05T06:18:03.862Z,97.62
2018-12-05T06:20:32.074Z,98.60
2018-12-05T06:23:00.250Z,98.26
2018-12-05T06:25:28.491Z,98.60
2018-12-05T06:27:56.676Z,98.71
2018-12-05T06:30:24.906Z,98.96
2018-12-05T06:32:53.089Z,98.87
2018-12-05T06:35:21.366Z,98.74
2018-12-05T06:37:49.633Z,98.57
2018-12-05T06:40:17.894Z,98.44
2018-12-05T06:42:46.145Z,98.96
2018-12-05T06:45:14.486Z,98.87
2018-12-05T06:47:42.665Z,98.51
2018-12-05T06:50:10.934Z,98.80
2018-12-05T06:52:39.140Z,98.73
2018-12-05T06:55:07.476Z,98.52
2018-12-05T06:57:35.557Z,98.31
2018-12-05T07:00:03.858Z,98.12
2018-12-05T07:02:31.999Z,97.91
2018-12-05T07:05:00.117Z,98.29
2018-12-05T07:07:28.959Z,97.96
2018-12-05T07:09:57.157Z,97.92
2018-12-05T07:12:25.224Z,98.23
2018-12-05T07:14:53.315Z,98.11
2018-12-05T07:17:21.381Z,97.82
2018-12-05T07:19:49.453Z,97.86
2018-12-05T07:22:17.525Z,97.23
2018-12-05T07:24:45.605Z,96.92
2018-12-05T07:27:13.789Z,97.21
2018-12-05T07:29:41.891Z,97.24
2018-12-05T07:32:10.038Z,97.33
2018-12-05T07:34:38.137Z,97.52
2018-12-05T07:37:06.415Z,97.34
2018-12-05T07:39:34.505Z,97.23
2018-12-05T07:42:02.587Z,97.38
2018-12-05T07:44:30.694Z,97.15
2018-12-05T07:46:58.845Z,96.74
2018-12-05T07:49:26.965Z,96.10
2018-12-05T07:51:55.477Z,96.18
2018-12-05T07:54:23.569Z,96.60
2018-12-05T07:56:51.751Z,96.14
2018-12-05T07:59:19.906Z,95.62
2018-12-05T08:01:48.074Z,95.79
2018-12-05T08:04:17.338Z,95.94
2018-12-05T08:06:45.446Z,95.62
2018-12-05T08:09:13.569Z,95.71
2018-12-05T08:11:41.752Z,95.39
2018-12-05T08:14:10.065Z,95.15
2018-12-05T08:16:38.234Z,95.34
2018-12-05T08:19:06.286Z,95.38
2018-12-05T08:21:34.390Z,94.49
2018-12-05T08:24:02.441Z,94.86
2018-12-05T08:26:30.597Z,94.94
2018-12-05T08:28:58.691Z,94.81
2018-12-05T08:31:26.814Z,95.21
2018-12-05T08:33:54.953Z,94.93
2018-12-05T08:36:23.026Z,94.73
2018-12-05T08:38:51.194Z,94.18
2018-12-05T08:41:19.270Z,94.42
2018-12-05T08:43:47.337Z,94.37
2018-12-05T08:46:15.410Z,94.25
2018-12-05T08:48:43.473Z,93.32
2018-12-05T08:51:11.695Z,93.70
2018-12-05T08:53:39.819Z,93.46
2018-12-05T08:56:07.962Z,93.58
2018-12-05T08:58:36.040Z,93.43
2018-12-05T09:01:04.102Z,92.80
2018-12-05T09:03:32.187Z,92.89
2018-12-05T09:06:00.359Z,93.20
2018-12-05T09:08:28.450Z,92.29
2018-12-05T09:10:56.614Z,92.82
2018-12-05T09:13:24.916Z,92.41
2018-12-05T09:15:53.195Z,92.37
2018-12-05T09:18:21.379Z,93.03
2018-12-05T09:20:49.559Z,92.49
2018-12-05T09:23:17.828Z,92.08
2018-12-05T09:25:52.705Z,92.05
2018-12-05T09:28:20.857Z,92.59
2018-12-05T09:30:49.011Z,92.50
2018-12-05T09:33:17.190Z,92.37
2018-12-05T09:35:45.503Z,91.78
2018-12-05T09:38:13.681Z,90.90
2018-12-05T09:40:41.858Z,90.91
2018-12-05T09:43:10.065Z,90.87
2018-12-05T09:45:38.246Z,90.30
2018-12-05T09:48:06.445Z,90.64
2018-12-05T09:50:34.551Z,89.83
2018-12-05T09:53:02.709Z,90.16
2018-12-05T09:55:31.103Z,89.51
2018-12-05T09:57:59.310Z,89.16
2018-12-05T10:00:27.462Z,89.32
2018-12-05T10:02:55.541Z,90.07
2018-12-05T10:05:23.699Z,89.09
2018-12-05T10:07:51.806Z,89.21
2018-12-05T10:10:19.959Z,89.46
2018-12-05T10:12:48.043Z,89.77
2018-12-05T10:15:16.142Z,89.39
2018-12-05T10:17:44.297Z,89.19
2018-12-05T10:20:12.465Z,89.15
2018-12-05T10:22:40.613Z,89.04
2018-12-05T10:25:08.843Z,89.33
2018-12-05T10:27:43.189Z,89.04
2018-12-05T10:30:11.429Z,88.14
2018-12-05T10:32:39.586Z,88.72
2018-12-05T10:35:07.995Z,89.04
2018-12-05T10:37:36.178Z,88.33
2018-12-05T10:40:05.066Z,89.50
2018-12-05T10:42:33.389Z,88.96
2018-12-05T10:45:01.576Z,88.85
2018-12-05T10:47:29.989Z,89.10
2018-12-05T10:49:58.252Z,88.98
2018-12-05T10:52:26.514Z,88.90
2018-12-05T10:54:54.704Z,88.88
2018-12-05T10:57:22.882Z,88.58
2018-12-05T10:59:51.170Z,88.99
2018-12-05T11:02:24.714Z,89.22
2018-12-05T11:04:58.342Z,89.04
2018-12-05T11:07:31.856Z,88.82
2018-12-05T11:10:05.302Z,88.63
2018-12-05T11:12:38.693Z,88.66
2018-12-05T11:15:12.312Z,88.90
2018-12-05T11:17:43.822Z,88.53
2018-12-05T11:20:17.467Z,88.56
2018-12-05T11:22:50.894Z,88.48
2018-12-05T11:25:20.659Z,88.40
2018-12-05T11:27:48.935Z,88.99
2018-12-05T11:30:17.210Z,88.71
2018-12-05T11:32:45.389Z,88.48
2018-12-05T11:35:13.658Z,88.29
2018-12-05T11:37:41.935Z,88.75
2018-12-05T11:40:10.154Z,88.24
2018-12-05T11:42:38.334Z,88.86
2018-12-05T11:45:06.738Z,88.12
2018-12-05T11:47:34.926Z,88.34
2018-12-05T11:50:03.201Z,88.77
2018-12-05T11:52:31.394Z,88.79
2018-12-05T11:54:59.602Z,88.56
2018-12-05T11:57:27.863Z,88.66
2018-12-05T11:59:56.118Z,88.33
2018-12-05T12:02:24.303Z,88.37
2018-12-05T12:04:52.655Z,88.61
2018-12-05T12:07:20.859Z,89.09
2018-12-05T12:09:49.222Z,89.02
2018-12-05T12:12:22.831Z,88.60
2018-12-05T12:14:51.024Z,88.48
2018-12-05T12:17:19.375Z,88.68
2018-12-05T12:19:47.635Z,88.30
2018-12-05T12:22:15.820Z,88.82
2018-12-05T12:27:28.188Z,88.91
2018-12-05T12:29:56.439Z,89.20
2018-12-05T12:32:24.614Z,88.61
2018-12-05T12:34:52.779Z,88.54
2018-12-05T12:37:20.978Z,88.80
2018-12-05T12:39:49.159Z,88.62
2018-12-05T12:42:17.431Z,88.74
2018-12-05T12:44:45.670Z,88.66
2018-12-05T12:47:14.049Z,88.02
2018-12-05T12:49:42.226Z,87.94
2018-12-05T12:52:10.433Z,88.33
2018-12-05T12:54:38.627Z,88.20
2018-12-05T12:57:06.981Z,87.63
2018-12-05T12:59:35.166Z,87.97
2018-12-05T13:02:03.346Z,87.62
2018-12-05T13:04:31.543Z,87.71
2018-12-05T13:06:59.735Z,87.88
2018-12-05T13:09:27.935Z,88.46
2018-12-05T13:11:56.211Z,87.95
2018-12-05T13:14:24.401Z,87.92
2018-12-05T13:16:52.580Z,87.72
2018-12-05T13:19:20.885Z,87.10
2018-12-05T13:21:49.167Z,87.77
2018-12-05T13:24:17.363Z,87.41
2018-12-05T13:26:45.638Z,86.47
2018-12-05T13:29:14.023Z,86.18
2018-12-05T13:31:42.210Z,86.47
2018-12-05T13:34:10.415Z,86.01
2018-12-05T13:36:38.590Z,86.23
2018-12-05T13:39:08.453Z,87.39
2018-12-05T13:41:36.646Z,87.08
2018-12-05T13:44:04.963Z,86.89
2018-12-05T13:46:33.249Z,86.32
2018-12-05T13:49:01.530Z,86.62
2018-12-05T13:51:29.795Z,85.99
2018-12-05T13:53:57.990Z,86.62
2018-12-05T13:56:26.200Z,85.84
2018-12-05T13:58:54.531Z,85.59
2018-12-05T14:01:22.694Z,86.33
2018-12-05T14:03:50.895Z,86.53
2018-12-05T14:06:19.147Z,86.68
2018-12-05T14:08:47.364Z,86.51
2018-12-05T14:11:15.660Z,86.54
2018-12-05T14:13:43.942Z,86.07
2018-12-05T14:16:12.215Z,86.15
2018-12-05T14:18:40.410Z,87.51
2018-12-05T14:21:08.707Z,87.44
2018-12-05T14:23:36.900Z,87.88
2018-12-05T14:26:05.245Z,88.07
2018-12-05T14:28:33.438Z,88.01
2018-12-05T14:31:01.658Z,87.57
2018-12-05T14:33:29.834Z,87.68
2018-12-05T14:35:58.186Z,87.99
2018-12-05T14:38:26.379Z,87.74
2018-12-05T14:40:54.669Z,87.68
2018-12-05T14:43:22.867Z,87.84
2018-12-05T14:45:51.040Z,87.63
2018-12-05T14:48:19.238Z,87.37
2018-12-05T14:50:47.432Z,87.86
2018-12-05T14:53:15.814Z,88.01
2018-12-05T14:55:44.037Z,88.54
2018-12-05T14:58:12.291Z,88.36
2018-12-05T15:00:40.486Z,88.65
2018-12-05T15:03:08.692Z,88.42
2018-12-05T15:05:36.959Z,88.23
2018-12-05T15:08:05.227Z,88.38
2018-12-05T15:10:33.441Z,88.33
2018-12-05T15:13:01.640Z,88.14
2018-12-05T15:15:29.903Z,88.72
2018-12-05T15:17:58.098Z,88.38
2018-12-05T15:20:26.323Z,88.18
2018-12-05T15:22:54.507Z,88.67
2018-12-05T15:25:22.802Z,89.13
2018-12-05T15:27:50.970Z,88.29
2018-12-05T15:30:19.159Z,88.67
2018-12-05T15:32:47.459Z,88.52
2018-12-05T15:35:15.655Z,88.10
2018-12-05T15:37:43.826Z,88.31
2018-12-05T15:40:12.114Z,88.84
2018-12-05T15:42:40.295Z,88.96
2018-12-05T15:45:08.623Z,88.61
2018-12-05T15:47:37.242Z,88.81
2018-12-05T15:50:07.351Z,88.26
2018-12-05T15:52:35.538Z,88.48
2018-12-05T15:55:03.864Z,88.53
2018-12-05T15:57:32.072Z,88.31
2018-12-05T16:00:00.354Z,88.00
2018-12-05T16:02:28.598Z,88.50
2018-12-05T16:04:56.767Z,88.64
2018-12-05T16:07:25.045Z,88.48
2018-12-05T16:09:53.227Z,88.54
2018-12-05T16:12:21.510Z,88.78
2018-12-05T16:14:49.783Z,89.22
2018-12-05T16:17:17.986Z,88.76
2018-12-05T16:19:46.170Z,89.47
2018-12-05T16:22:14.395Z,89.32
2018-12-05T16:24:42.566Z,89.46
2018-12-05T16:27:10.759Z,88.75
2018-12-05T16:29:38.925Z,88.55
2018-12-05T16:32:07.111Z,88.79
2018-12-05T16:34:35.290Z,88.84
2018-12-05T16:37:03.510Z,89.31
2018-12-05T16:39:31.716Z,89.76
2018-12-05T16:41:59.948Z,89.61
2018-12-05T16:44:28.475Z,89.81
2018-12-05T16:47:00.698Z,89.69
2018-12-05T16:49:28.912Z,89.39
2018-12-05T16:51:57.316Z,89.62
2018-12-05T16:54:25.630Z,90.09
2018-12-05T16:56:53.791Z,90.07
2018-12-05T16:59:21.932Z,89.80
2018-12-05T17:01:50.276Z,89.62
2018-12-05T17:04:18.427Z,89.73
2018-12-05T17:06:46.629Z,91.12
2018-12-05T17:09:14.810Z,90.34
2018-12-05T17:11:42.933Z,90.55
2018-12-05T17:14:11.069Z,91.17
2018-12-05T17:16:39.146Z,90.69
2018-12-05T17:19:07.617Z,90.29
2018-12-05T17:21:35.708Z,90.79
2018-12-05T17:24:04.021Z,90.51
2018-12-05T17:26:32.183Z,90.58
2018-12-05T17:29:00.351Z,90.99
2018-12-05T17:31:28.547Z,91.53
2018-12-05T17:33:56.698Z,91.28
2018-12-05T17:36:24.857Z,91.09
2018-12-05T17:38:53.080Z,90.94
2018-12-05T17:41:21.171Z,91.19
2018-12-05T17:43:49.322Z,91.01
2018-12-05T17:46:17.393Z,91.39
2018-12-05T17:48:45.506Z,92.60
2018-12-05T17:51:13.622Z,92.11
2018-12-05T17:53:44.002Z,92.63
2018-12-05T17:56:14.150Z,92.72
2018-12-05T17:58:45.191Z,92.38
2018-12-05T18:01:17.025Z,92.46
2018-12-05T18:03:48.927Z,92.29
2018-12-05T18:06:18.507Z,91.68
2018-12-05T18:08:48.190Z,91.85
2018-12-05T18:11:20.037Z,91.74
2018-12-05T18:13:52.221Z,92.14
2018-12-05T18:16:24.003Z,91.80
2018-12-05T18:18:55.669Z,91.56
2018-12-05T18:21:27.801Z,92.31
2018-12-05T18:24:00.000Z,92.11
2018-12-05T18:26:31.193Z,92.25
2018-12-05T18:29:04.659Z,91.71
2018-12-05T18:31:39.108Z,91.85
2018-12-05T18:34:09.669Z,91.30
2018-12-05T18:36:41.683Z,91.25
2018-12-05T18:39:14.711Z,91.29
2018-12-05T18:41:43.323Z,91.57
2018-12-05T18:44:17.397Z,91.63
2018-12-05T18:46:53.277Z,91.58
2018-12-05T18:49:28.310Z,91.45
2018-12-05T18:52:01.086Z,91.75
2018-12-05T18:54:31.294Z,92.44
2018-12-05T18:57:09.419Z,92.02
2018-12-05T18:59:40.835Z,91.61
2018-12-05T19:02:11.055Z,91.73
2018-12-05T19:04:45.039Z,92.35
2018-12-05T19:07:17.514Z,93.07
2018-12-05T19:09:50.108Z,92.23
2018-12-05T19:12:32.336Z,91.91
2018-12-05T19:15:02.956Z,91.80
2018-12-05T19:17:33.966Z,92.00
2018-12-05T19:33:35.036Z,93.05
2018-12-05T19:39:06.568Z,93.27
2018-12-05T19:41:43.399Z,92.76
2018-12-05T19:44:19.819Z,93.46
2018-12-05T19:47:03.385Z,93.36
2018-12-05T19:49:38.237Z,93.21
2018-12-05T19:52:11.626Z,92.94
2018-12-05T19:54:43.477Z,93.00
2018-12-05T19:57:15.571Z,93.46
2018-12-05T19:59:45.982Z,93.61
2018-12-05T20:02:18.542Z,93.31
2018-12-05T20:04:48.741Z,92.88
2018-12-05T20:07:28.507Z,92.88
2018-12-05T20:10:02.620Z,92.51
2018-12-05T20:12:33.689Z,92.63
2018-12-05T20:15:05.745Z,92.36
2018-12-05T20:17:38.339Z,92.53
2018-12-05T20:21:03.835Z,92.97
2018-12-05T20:26:52.383Z,93.03
2018-12-05T20:34:04.464Z,93.66
2018-12-05T20:36:39.784Z,93.03
2018-12-05T20:39:26.000Z,93.44
2018-12-05T20:42:08.351Z,93.41
2018-12-05T20:44:37.232Z,93.50
2018-12-05T20:47:09.945Z,93.49
2018-12-05T20:49:39.986Z,93.58
2018-12-05T20:57:52.056Z,93.14
2018-12-05T21:00:26.210Z,92.88
2018-12-05T21:02:56.669Z,92.55
2018-12-05T21:05:31.929Z,93.29
2018-12-05T21:08:09.391Z,92.98
2018-12-05T21:10:39.552Z,93.21
2018-12-05T21:13:27.176Z,93.00
2018-12-05T21:16:04.065Z,92.84
2018-12-05T21:21:57.873Z,92.76
2018-12-05T21:24:26.754Z,92.49
2018-12-05T21:26:56.894Z,92.50
2018-12-05T21:29:27.943Z,92.47
2018-12-05T21:32:04.479Z,92.02
2018-12-05T21:34:36.205Z,92.23
2018-12-05T21:37:09.842Z,92.13
2018-12-05T21:39:41.045Z,92.36
2018-12-05T21:42:12.881Z,92.09
2018-12-05T21:44:44.429Z,92.42
2018-12-05T21:47:17.083Z,92.25
2018-12-05T21:49:49.329Z,92.18
2018-12-05T21:52:24.015Z,92.59
2018-12-05T21:54:59.857Z,92.62
2018-12-05T21:57:37.271Z,92.81
2018-12-05T22:00:13.228Z,92.78
2018-12-05T22:02:43.095Z,92.37
2018-12-05T22:05:24.451Z,92.27
2018-12-05T22:07:53.618Z,92.18
2018-12-05T22:10:22.094Z,92.36
2018-12-05T22:12:55.035Z,91.95
2018-12-05T22:15:24.442Z,92.00
2018-12-05T22:17:52.626Z,92.17
2018-12-05T22:20:29.794Z,91.77
2018-12-05T22:23:05.979Z,90.98
2018-12-05T22:25:38.962Z,91.22
2018-12-05T22:28:09.138Z,91.61
2018-12-05T22:30:39.992Z,91.71
2018-12-05T22:33:15.815Z,92.30
2018-12-05T22:38:40.956Z,92.18
2018-12-05T22:41:17.712Z,91.82
2018-12-05T22:44:02.873Z,92.03
2018-12-05T22:46:34.041Z,92.31
2018-12-05T22:49:21.774Z,92.32
2018-12-05T22:52:05.104Z,92.24
2018-12-05T22:54:51.562Z,92.74
2018-12-05T22:57:30.164Z,92.83
2018-12-05T23:00:17.041Z,92.61
2018-12-05T23:02:56.876Z,92.19
2018-12-05T23:05:27.412Z,92.12
2018-12-05T23:07:59.083Z,92.23
2018-12-05T23:10:28.484Z,91.93
2018-12-05T23:12:58.929Z,91.71
2018-12-05T23:15:28.589Z,91.17
2018-12-05T23:17:57.622Z,91.39
2018-12-05T23:20:26.313Z,91.91
2018-12-05T23:22:55.883Z,91.59
2018-12-05T23:25:24.189Z,91.22
2018-12-05T23:27:53.203Z,91.99
2018-12-05T23:30:22.888Z,91.43
2018-12-05T23:32:55.088Z,92.14
2018-12-05T23:35:25.327Z,91.88
2018-12-05T23:37:55.254Z,91.99
2018-12-05T23:40:29.646Z,92.15
2018-12-05T23:42:58.850Z,92.42
2018-12-05T23:45:29.030Z,92.28
2018-12-05T23:48:00.453Z,91.78
2018-12-05T23:50:30.390Z,91.79
2018-12-05T23:53:03.716Z,92.31
2018-12-05T23:55:36.331Z,92.74
2018-12-05T23:58:12.005Z,92.38
